sensor_id;sensor_type;location;lat;lon;timestamp;P1;durP1;ratioP1;P2;durP2;ratioP2
43919;SDS011;29578;51.946;5.874;2022-12-04T00:01:21;7.32;;;3.10;;
43919;SDS011;29578;51.946;5.874;2022-12-04T00:03:50;6.97;;;3.13;;
43919;SDS011;29578;51.946;5.874;2022-12-04T00:06:18;6.72;;;2.75;;
43919;SDS011;29578;51.946;5.874;2022-12-04T00:08:45;5.70;;;2.63;;
43919;SDS011;29578;51.946;5.874;2022-12-04T00:11:12;6.88;;;3.10;;
43919;SDS011;29578;51.946;5.874;2022-12-04T00:13:41;6.72;;;2.90;;
43919;SDS011;29578;51.946;5.874;2022-12-04T00:16:07;6.53;;;2.95;;
43919;SDS011;29578;51.946;5.874;2022-12-04T00:18:36;7.60;;;2.97;;
43919;SDS011;29578;51.946;5.874;2022-12-04T00:21:03;7.63;;;3.38;;
43919;SDS011;29578;51.946;5.874;2022-12-04T00:23:30;8.75;;;3.33;;
43919;SDS011;29578;51.946;5.874;2022-12-04T00:26:00;8.57;;;3.53;;
43919;SDS011;29578;51.946;5.874;2022-12-04T00:28:27;7.47;;;3.50;;
43919;SDS011;29578;51.946;5.874;2022-12-04T00:30:52;7.03;;;3.05;;
43919;SDS011;29578;51.946;5.874;2022-12-04T00:33:18;8.20;;;3.35;;
43919;SDS011;29578;51.946;5.874;2022-12-04T00:35:44;7.90;;;3.10;;
43919;SDS011;29578;51.946;5.874;2022-12-04T00:38:09;6.40;;;2.53;;
43919;SDS011;29578;51.946;5.874;2022-12-04T00:40:35;5.95;;;3.00;;
43919;SDS011;29578;51.946;5.874;2022-12-04T00:43:01;7.75;;;2.97;;
43919;SDS011;29578;51.946;5.874;2022-12-04T00:45:27;6.43;;;3.00;;
43919;SDS011;29578;51.946;5.874;2022-12-04T00:47:53;6.32;;;2.78;;
43919;SDS011;29578;51.946;5.874;2022-12-04T00:50:19;6.25;;;2.63;;
43919;SDS011;29578;51.946;5.874;2022-12-04T00:52:45;6.82;;;2.90;;
43919;SDS011;29578;51.946;5.874;2022-12-04T00:55:10;6.40;;;2.67;;
43919;SDS011;29578;51.946;5.874;2022-12-04T00:57:36;8.30;;;3.40;;
43919;SDS011;29578;51.946;5.874;2022-12-04T01:00:02;6.97;;;2.80;;
43919;SDS011;29578;51.946;5.874;2022-12-04T01:02:29;6.30;;;3.00;;
43919;SDS011;29578;51.946;5.874;2022-12-04T01:04:55;5.32;;;2.38;;
43919;SDS011;29578;51.946;5.874;2022-12-04T01:07:20;7.40;;;3.20;;
43919;SDS011;29578;51.946;5.874;2022-12-04T01:09:46;6.13;;;3.20;;
43919;SDS011;29578;51.946;5.874;2022-12-04T01:12:12;6.38;;;3.00;;
43919;SDS011;29578;51.946;5.874;2022-12-04T01:14:37;7.20;;;2.95;;
43919;SDS011;29578;51.946;5.874;2022-12-04T01:17:03;7.20;;;3.28;;
43919;SDS011;29578;51.946;5.874;2022-12-04T01:19:29;6.40;;;2.75;;
43919;SDS011;29578;51.946;5.874;2022-12-04T01:21:54;5.97;;;2.88;;
43919;SDS011;29578;51.946;5.874;2022-12-04T01:24:20;5.22;;;2.47;;
43919;SDS011;29578;51.946;5.874;2022-12-04T01:26:45;6.25;;;2.92;;
43919;SDS011;29578;51.946;5.874;2022-12-04T01:29:11;6.68;;;2.63;;
43919;SDS011;29578;51.946;5.874;2022-12-04T01:31:37;6.07;;;2.80;;
43919;SDS011;29578;51.946;5.874;2022-12-04T01:34:02;5.78;;;2.60;;
43919;SDS011;29578;51.946;5.874;2022-12-04T01:36:28;7.38;;;3.17;;
43919;SDS011;29578;51.946;5.874;2022-12-04T01:38:54;7.68;;;3.15;;
43919;SDS011;29578;51.946;5.874;2022-12-04T01:41:22;5.22;;;2.33;;
43919;SDS011;29578;51.946;5.874;2022-12-04T01:46:46;6.10;;;2.45;;
43919;SDS011;29578;51.946;5.874;2022-12-04T01:51:58;5.70;;;2.42;;
43919;SDS011;29578;51.946;5.874;2022-12-04T01:54:30;6.22;;;2.30;;
43919;SDS011;29578;51.946;5.874;2022-12-04T01:57:01;5.50;;;2.60;;
43919;SDS011;29578;51.946;5.874;2022-12-04T01:59:35;5.47;;;2.40;;
43919;SDS011;29578;51.946;5.874;2022-12-04T02:02:06;7.53;;;2.85;;
43919;SDS011;29578;51.946;5.874;2022-12-04T02:04:34;6.53;;;3.20;;
43919;SDS011;29578;51.946;5.874;2022-12-04T02:07:00;5.85;;;2.40;;
43919;SDS011;29578;51.946;5.874;2022-12-04T02:09:26;5.45;;;2.67;;
43919;SDS011;29578;51.946;5.874;2022-12-04T02:11:56;7.38;;;3.00;;
43919;SDS011;29578;51.946;5.874;2022-12-04T02:14:43;7.63;;;2.95;;
43919;SDS011;29578;51.946;5.874;2022-12-04T02:17:27;7.22;;;2.70;;
43919;SDS011;29578;51.946;5.874;2022-12-04T02:23:06;6.15;;;2.50;;
43919;SDS011;29578;51.946;5.874;2022-12-04T02:25:52;6.25;;;2.85;;
43919;SDS011;29578;51.946;5.874;2022-12-04T02:31:31;5.90;;;2.72;;
43919;SDS011;29578;51.946;5.874;2022-12-04T02:34:05;7.82;;;3.20;;
43919;SDS011;29578;51.946;5.874;2022-12-04T02:36:48;8.02;;;3.33;;
43919;SDS011;29578;51.946;5.874;2022-12-04T02:39:21;7.50;;;3.25;;
43919;SDS011;29578;51.946;5.874;2022-12-04T02:41:58;7.05;;;3.17;;
43919;SDS011;29578;51.946;5.874;2022-12-04T02:44:34;5.90;;;2.90;;
43919;SDS011;29578;51.946;5.874;2022-12-04T02:47:08;5.93;;;2.80;;
43919;SDS011;29578;51.946;5.874;2022-12-04T02:49:39;6.82;;;3.53;;
43919;SDS011;29578;51.946;5.874;2022-12-04T02:52:10;6.97;;;3.40;;
43919;SDS011;29578;51.946;5.874;2022-12-04T02:54:40;6.97;;;3.10;;
43919;SDS011;29578;51.946;5.874;2022-12-04T02:57:10;5.38;;;2.40;;
43919;SDS011;29578;51.946;5.874;2022-12-04T02:59:41;9.15;;;3.20;;
43919;SDS011;29578;51.946;5.874;2022-12-04T03:02:11;6.28;;;2.97;;
43919;SDS011;29578;51.946;5.874;2022-12-04T03:04:42;5.82;;;2.60;;
43919;SDS011;29578;51.946;5.874;2022-12-04T03:07:16;6.90;;;2.78;;
43919;SDS011;29578;51.946;5.874;2022-12-04T03:09:49;6.53;;;2.65;;
43919;SDS011;29578;51.946;5.874;2022-12-04T03:12:26;6.75;;;3.40;;
43919;SDS011;29578;51.946;5.874;2022-12-04T03:15:01;8.07;;;2.50;;
43919;SDS011;29578;51.946;5.874;2022-12-04T03:17:36;5.90;;;2.85;;
43919;SDS011;29578;51.946;5.874;2022-12-04T03:20:08;6.35;;;3.00;;
43919;SDS011;29578;51.946;5.874;2022-12-04T03:22:39;5.97;;;2.70;;
43919;SDS011;29578;51.946;5.874;2022-12-04T03:25:08;6.32;;;2.80;;
43919;SDS011;29578;51.946;5.874;2022-12-04T03:30:24;6.38;;;2.95;;
43919;SDS011;29578;51.946;5.874;2022-12-04T03:32:54;6.68;;;2.83;;
43919;SDS011;29578;51.946;5.874;2022-12-04T03:35:28;6.85;;;2.90;;
43919;SDS011;29578;51.946;5.874;2022-12-04T03:38:11;7.93;;;2.72;;
43919;SDS011;29578;51.946;5.874;2022-12-04T03:40:43;7.25;;;3.17;;
43919;SDS011;29578;51.946;5.874;2022-12-04T03:43:19;7.38;;;2.97;;
43919;SDS011;29578;51.946;5.874;2022-12-04T03:45:55;6.80;;;3.05;;
43919;SDS011;29578;51.946;5.874;2022-12-04T03:48:28;7.97;;;3.30;;
43919;SDS011;29578;51.946;5.874;2022-12-04T03:51:04;6.75;;;2.47;;
43919;SDS011;29578;51.946;5.874;2022-12-04T03:53:40;6.60;;;2.97;;
43919;SDS011;29578;51.946;5.874;2022-12-04T03:56:20;6.18;;;2.88;;
43919;SDS011;29578;51.946;5.874;2022-12-04T03:58:57;6.43;;;2.60;;
43919;SDS011;29578;51.946;5.874;2022-12-04T04:01:28;5.75;;;2.30;;
43919;SDS011;29578;51.946;5.874;2022-12-04T04:03:58;5.70;;;2.47;;
43919;SDS011;29578;51.946;5.874;2022-12-04T04:06:31;6.63;;;3.05;;
43919;SDS011;29578;51.946;5.874;2022-12-04T04:09:03;6.15;;;2.85;;
43919;SDS011;29578;51.946;5.874;2022-12-04T04:11:34;5.97;;;2.70;;
43919;SDS011;29578;51.946;5.874;2022-12-04T04:14:26;4.88;;;2.30;;
43919;SDS011;29578;51.946;5.874;2022-12-04T04:17:21;6.00;;;2.80;;
43919;SDS011;29578;51.946;5.874;2022-12-04T04:20:14;7.75;;;3.00;;
43919;SDS011;29578;51.946;5.874;2022-12-04T04:23:00;5.88;;;2.45;;
43919;SDS011;29578;51.946;5.874;2022-12-04T04:25:41;8.05;;;3.10;;
43919;SDS011;29578;51.946;5.874;2022-12-04T04:30:54;6.25;;;2.63;;
43919;SDS011;29578;51.946;5.874;2022-12-04T04:33:26;5.78;;;2.60;;
43919;SDS011;29578;51.946;5.874;2022-12-04T04:35:56;5.90;;;2.92;;
43919;SDS011;29578;51.946;5.874;2022-12-04T04:38:31;7.32;;;3.40;;
43919;SDS011;29578;51.946;5.874;2022-12-04T04:41:09;6.93;;;3.00;;
43919;SDS011;29578;51.946;5.874;2022-12-04T04:46:32;7.82;;;3.13;;
43919;SDS011;29578;51.946;5.874;2022-12-04T04:49:02;6.32;;;3.13;;
43919;SDS011;29578;51.946;5.874;2022-12-04T04:51:30;6.53;;;3.05;;
43919;SDS011;29578;51.946;5.874;2022-12-04T04:53:59;7.20;;;3.28;;
43919;SDS011;29578;51.946;5.874;2022-12-04T04:56:28;6.40;;;2.60;;
43919;SDS011;29578;51.946;5.874;2022-12-04T04:58:54;7.53;;;3.22;;
43919;SDS011;29578;51.946;5.874;2022-12-04T05:01:21;6.40;;;2.78;;
43919;SDS011;29578;51.946;5.874;2022-12-04T05:03:50;8.32;;;3.13;;
43919;SDS011;29578;51.946;5.874;2022-12-04T05:06:16;7.78;;;3.25;;
43919;SDS011;29578;51.946;5.874;2022-12-04T05:08:42;6.28;;;2.67;;
43919;SDS011;29578;51.946;5.874;2022-12-04T05:11:10;6.25;;;2.85;;
43919;SDS011;29578;51.946;5.874;2022-12-04T05:13:37;7.55;;;2.97;;
43919;SDS011;29578;51.946;5.874;2022-12-04T05:16:04;5.63;;;2.47;;
43919;SDS011;29578;51.946;5.874;2022-12-04T05:18:32;5.75;;;2.63;;
43919;SDS011;29578;51.946;5.874;2022-12-04T05:21:03;7.45;;;3.00;;
43919;SDS011;29578;51.946;5.874;2022-12-04T05:23:30;6.53;;;3.05;;
43919;SDS011;29578;51.946;5.874;2022-12-04T05:25:57;6.88;;;2.97;;
43919;SDS011;29578;51.946;5.874;2022-12-04T05:28:25;7.32;;;2.70;;
43919;SDS011;29578;51.946;5.874;2022-12-04T05:30:55;6.40;;;2.70;;
43919;SDS011;29578;51.946;5.874;2022-12-04T05:33:22;6.25;;;2.65;;
43919;SDS011;29578;51.946;5.874;2022-12-04T05:35:59;5.72;;;2.65;;
43919;SDS011;29578;51.946;5.874;2022-12-04T05:38:26;6.35;;;2.90;;
43919;SDS011;29578;51.946;5.874;2022-12-04T05:40:52;6.10;;;2.80;;
43919;SDS011;29578;51.946;5.874;2022-12-04T05:43:18;5.22;;;2.35;;
43919;SDS011;29578;51.946;5.874;2022-12-04T05:45:43;5.90;;;2.53;;
43919;SDS011;29578;51.946;5.874;2022-12-04T05:48:09;5.72;;;2.50;;
43919;SDS011;29578;51.946;5.874;2022-12-04T05:50:36;7.60;;;2.72;;
43919;SDS011;29578;51.946;5.874;2022-12-04T05:53:02;5.70;;;2.50;;
43919;SDS011;29578;51.946;5.874;2022-12-04T05:55:28;4.93;;;2.42;;
43919;SDS011;29578;51.946;5.874;2022-12-04T05:57:54;5.53;;;2.50;;
43919;SDS011;29578;51.946;5.874;2022-12-04T06:00:19;6.32;;;2.33;;
43919;SDS011;29578;51.946;5.874;2022-12-04T06:02:45;6.63;;;2.75;;
43919;SDS011;29578;51.946;5.874;2022-12-04T06:05:10;5.50;;;2.20;;
43919;SDS011;29578;51.946;5.874;2022-12-04T06:07:36;7.50;;;3.08;;
43919;SDS011;29578;51.946;5.874;2022-12-04T06:10:02;5.22;;;2.40;;
43919;SDS011;29578;51.946;5.874;2022-12-04T06:12:29;5.72;;;2.55;;
43919;SDS011;29578;51.946;5.874;2022-12-04T06:14:55;6.13;;;2.78;;
43919;SDS011;29578;51.946;5.874;2022-12-04T06:17:20;6.32;;;2.67;;
43919;SDS011;29578;51.946;5.874;2022-12-04T06:19:46;6.70;;;2.97;;
43919;SDS011;29578;51.946;5.874;2022-12-04T06:22:12;5.63;;;2.47;;
43919;SDS011;29578;51.946;5.874;2022-12-04T06:24:37;6.63;;;2.67;;
43919;SDS011;29578;51.946;5.874;2022-12-04T06:27:03;6.50;;;2.70;;
43919;SDS011;29578;51.946;5.874;2022-12-04T06:29:29;6.93;;;2.88;;
43919;SDS011;29578;51.946;5.874;2022-12-04T06:31:54;6.07;;;2.50;;
43919;SDS011;29578;51.946;5.874;2022-12-04T06:34:20;5.32;;;2.33;;
43919;SDS011;29578;51.946;5.874;2022-12-04T06:36:46;6.10;;;2.28;;
43919;SDS011;29578;51.946;5.874;2022-12-04T06:39:11;5.65;;;2.60;;
43919;SDS011;29578;51.946;5.874;2022-12-04T06:41:37;5.50;;;2.70;;
43919;SDS011;29578;51.946;5.874;2022-12-04T06:44:02;6.90;;;3.10;;
43919;SDS011;29578;51.946;5.874;2022-12-04T06:46:29;6.20;;;2.63;;
43919;SDS011;29578;51.946;5.874;2022-12-04T06:48:57;4.97;;;2.38;;
43919;SDS011;29578;51.946;5.874;2022-12-04T06:51:27;5.35;;;2.53;;
43919;SDS011;29578;51.946;5.874;2022-12-04T06:53:55;7.18;;;2.58;;
43919;SDS011;29578;51.946;5.874;2022-12-04T06:56:22;6.25;;;2.47;;
43919;SDS011;29578;51.946;5.874;2022-12-04T06:58:50;6.32;;;2.78;;
43919;SDS011;29578;51.946;5.874;2022-12-04T07:01:19;6.22;;;3.10;;
43919;SDS011;29578;51.946;5.874;2022-12-04T07:03:46;5.80;;;2.55;;
43919;SDS011;29578;51.946;5.874;2022-12-04T07:06:14;5.60;;;2.63;;
43919;SDS011;29578;51.946;5.874;2022-12-04T07:08:43;7.40;;;3.28;;
43919;SDS011;29578;51.946;5.874;2022-12-04T07:11:09;6.22;;;2.90;;
43919;SDS011;29578;51.946;5.874;2022-12-04T07:13:35;6.97;;;3.22;;
43919;SDS011;29578;51.946;5.874;2022-12-04T07:16:02;7.03;;;3.08;;
43919;SDS011;29578;51.946;5.874;2022-12-04T07:18:29;6.65;;;2.75;;
43919;SDS011;29578;51.946;5.874;2022-12-04T07:20:56;5.68;;;2.78;;
43919;SDS011;29578;51.946;5.874;2022-12-04T07:23:22;6.22;;;3.10;;
43919;SDS011;29578;51.946;5.874;2022-12-04T07:25:48;6.32;;;2.90;;
43919;SDS011;29578;51.946;5.874;2022-12-04T07:28:14;5.20;;;2.80;;
43919;SDS011;29578;51.946;5.874;2022-12-04T07:30:40;6.90;;;2.78;;
43919;SDS011;29578;51.946;5.874;2022-12-04T07:33:05;5.82;;;2.70;;
43919;SDS011;29578;51.946;5.874;2022-12-04T07:35:35;5.35;;;2.45;;
43919;SDS011;29578;51.946;5.874;2022-12-04T07:38:01;6.47;;;2.78;;
43919;SDS011;29578;51.946;5.874;2022-12-04T07:40:27;7.10;;;2.50;;
43919;SDS011;29578;51.946;5.874;2022-12-04T07:42:52;5.50;;;2.58;;
43919;SDS011;29578;51.946;5.874;2022-12-04T07:45:18;5.22;;;2.40;;
43919;SDS011;29578;51.946;5.874;2022-12-04T07:47:44;7.57;;;3.17;;
43919;SDS011;29578;51.946;5.874;2022-12-04T07:50:10;6.28;;;2.83;;
43919;SDS011;29578;51.946;5.874;2022-12-04T07:52:36;5.90;;;2.58;;
43919;SDS011;29578;51.946;5.874;2022-12-04T07:55:03;6.03;;;2.67;;
43919;SDS011;29578;51.946;5.874;2022-12-04T07:57:30;5.05;;;2.47;;
43919;SDS011;29578;51.946;5.874;2022-12-04T07:59:56;6.15;;;2.65;;
43919;SDS011;29578;51.946;5.874;2022-12-04T08:02:21;5.22;;;2.28;;
43919;SDS011;29578;51.946;5.874;2022-12-04T08:04:47;7.45;;;2.95;;
43919;SDS011;29578;51.946;5.874;2022-12-04T08:07:13;5.60;;;2.30;;
43919;SDS011;29578;51.946;5.874;2022-12-04T08:09:39;4.63;;;2.38;;
43919;SDS011;29578;51.946;5.874;2022-12-04T08:12:05;4.32;;;1.95;;
43919;SDS011;29578;51.946;5.874;2022-12-04T08:14:31;6.50;;;2.72;;
43919;SDS011;29578;51.946;5.874;2022-12-04T08:16:56;6.22;;;2.65;;
43919;SDS011;29578;51.946;5.874;2022-12-04T08:19:22;6.82;;;2.70;;
43919;SDS011;29578;51.946;5.874;2022-12-04T08:21:48;6.00;;;2.63;;
43919;SDS011;29578;51.946;5.874;2022-12-04T08:24:14;5.85;;;2.63;;
43919;SDS011;29578;51.946;5.874;2022-12-04T08:26:39;5.65;;;2.55;;
43919;SDS011;29578;51.946;5.874;2022-12-04T08:29:05;5.72;;;2.60;;
43919;SDS011;29578;51.946;5.874;2022-12-04T08:31:31;5.40;;;2.42;;
43919;SDS011;29578;51.946;5.874;2022-12-04T08:33:59;5.43;;;2.70;;
43919;SDS011;29578;51.946;5.874;2022-12-04T08:36:27;5.63;;;2.53;;
43919;SDS011;29578;51.946;5.874;2022-12-04T08:38:54;6.35;;;2.10;;
43919;SDS011;29578;51.946;5.874;2022-12-04T08:41:20;7.80;;;2.50;;
43919;SDS011;29578;51.946;5.874;2022-12-04T08:43:47;6.30;;;2.60;;
43919;SDS011;29578;51.946;5.874;2022-12-04T08:46:14;7.20;;;2.85;;
43919;SDS011;29578;51.946;5.874;2022-12-04T08:48:40;5.32;;;2.50;;
43919;SDS011;29578;51.946;5.874;2022-12-04T08:51:07;4.28;;;2.10;;
43919;SDS011;29578;51.946;5.874;2022-12-04T08:53:38;5.85;;;2.70;;
43919;SDS011;29578;51.946;5.874;2022-12-04T08:56:04;5.65;;;2.22;;
43919;SDS011;29578;51.946;5.874;2022-12-04T08:58:30;6.03;;;2.47;;
43919;SDS011;29578;51.946;5.874;2022-12-04T09:00:56;5.28;;;2.15;;
43919;SDS011;29578;51.946;5.874;2022-12-04T09:03:29;5.35;;;2.47;;
43919;SDS011;29578;51.946;5.874;2022-12-04T09:05:57;5.30;;;2.30;;
43919;SDS011;29578;51.946;5.874;2022-12-04T09:08:23;5.93;;;2.65;;
43919;SDS011;29578;51.946;5.874;2022-12-04T09:10:49;4.88;;;2.28;;
43919;SDS011;29578;51.946;5.874;2022-12-04T09:13:15;4.88;;;2.08;;
43919;SDS011;29578;51.946;5.874;2022-12-04T09:15:40;5.63;;;2.50;;
43919;SDS011;29578;51.946;5.874;2022-12-04T09:18:06;6.60;;;2.42;;
43919;SDS011;29578;51.946;5.874;2022-12-04T09:20:32;5.22;;;2.40;;
43919;SDS011;29578;51.946;5.874;2022-12-04T09:22:58;5.03;;;2.33;;
43919;SDS011;29578;51.946;5.874;2022-12-04T09:25:24;4.70;;;2.15;;
43919;SDS011;29578;51.946;5.874;2022-12-04T09:27:50;4.80;;;2.28;;
43919;SDS011;29578;51.946;5.874;2022-12-04T09:30:15;4.43;;;2.03;;
43919;SDS011;29578;51.946;5.874;2022-12-04T09:32:41;5.55;;;2.42;;
43919;SDS011;29578;51.946;5.874;2022-12-04T09:35:07;6.53;;;2.60;;
43919;SDS011;29578;51.946;5.874;2022-12-04T09:37:33;5.47;;;2.38;;
43919;SDS011;29578;51.946;5.874;2022-12-04T09:40:01;5.35;;;2.40;;
43919;SDS011;29578;51.946;5.874;2022-12-04T09:45:27;4.50;;;2.10;;
43919;SDS011;29578;51.946;5.874;2022-12-04T09:48:00;5.72;;;2.50;;
43919;SDS011;29578;51.946;5.874;2022-12-04T09:50:33;4.43;;;2.40;;
43919;SDS011;29578;51.946;5.874;2022-12-04T09:53:05;6.05;;;2.63;;
43919;SDS011;29578;51.946;5.874;2022-12-04T09:55:44;5.82;;;2.50;;
43919;SDS011;29578;51.946;5.874;2022-12-04T09:58:20;5.82;;;2.40;;
43919;SDS011;29578;51.946;5.874;2022-12-04T10:00:49;5.13;;;2.50;;
43919;SDS011;29578;51.946;5.874;2022-12-04T10:03:17;5.40;;;2.40;;
43919;SDS011;29578;51.946;5.874;2022-12-04T10:05:59;5.57;;;2.40;;
43919;SDS011;29578;51.946;5.874;2022-12-04T10:08:37;3.88;;;2.00;;
43919;SDS011;29578;51.946;5.874;2022-12-04T10:11:09;4.22;;;1.98;;
43919;SDS011;29578;51.946;5.874;2022-12-04T10:13:46;5.03;;;2.17;;
43919;SDS011;29578;51.946;5.874;2022-12-04T10:19:15;5.10;;;2.40;;
43919;SDS011;29578;51.946;5.874;2022-12-04T10:22:20;4.05;;;1.88;;
43919;SDS011;29578;51.946;5.874;2022-12-04T10:25:08;4.43;;;2.25;;
43919;SDS011;29578;51.946;5.874;2022-12-04T10:27:41;4.82;;;1.92;;
43919;SDS011;29578;51.946;5.874;2022-12-04T10:30:15;3.85;;;1.75;;
43919;SDS011;29578;51.946;5.874;2022-12-04T10:32:47;3.85;;;1.90;;
43919;SDS011;29578;51.946;5.874;2022-12-04T10:35:22;4.35;;;1.88;;
43919;SDS011;29578;51.946;5.874;2022-12-04T10:37:52;3.72;;;1.80;;
43919;SDS011;29578;51.946;5.874;2022-12-04T10:40:25;4.88;;;2.10;;
43919;SDS011;29578;51.946;5.874;2022-12-04T10:43:38;3.53;;;1.75;;
43919;SDS011;29578;51.946;5.874;2022-12-04T10:45:50;4.53;;;1.80;;
43919;SDS011;29578;51.946;5.874;2022-12-04T10:48:19;3.35;;;1.70;;
43919;SDS011;29578;51.946;5.874;2022-12-04T10:53:14;4.07;;;1.80;;
43919;SDS011;29578;51.946;5.874;2022-12-04T10:55:41;3.65;;;1.60;;
43919;SDS011;29578;51.946;5.874;2022-12-04T10:58:14;3.97;;;1.70;;
43919;SDS011;29578;51.946;5.874;2022-12-04T11:00:42;2.55;;;1.38;;
43919;SDS011;29578;51.946;5.874;2022-12-04T11:03:21;3.58;;;1.90;;
43919;SDS011;29578;51.946;5.874;2022-12-04T11:05:53;3.15;;;1.73;;
43919;SDS011;29578;51.946;5.874;2022-12-04T11:08:22;3.22;;;1.77;;
43919;SDS011;29578;51.946;5.874;2022-12-04T11:13:33;3.35;;;1.52;;
43919;SDS011;29578;51.946;5.874;2022-12-04T11:15:59;2.38;;;1.38;;
43919;SDS011;29578;51.946;5.874;2022-12-04T11:18:26;3.22;;;1.48;;
43919;SDS011;29578;51.946;5.874;2022-12-04T11:20:58;2.72;;;1.50;;
43919;SDS011;29578;51.946;5.874;2022-12-04T11:23:46;4.18;;;1.88;;
43919;SDS011;29578;51.946;5.874;2022-12-04T11:26:13;4.05;;;1.92;;
43919;SDS011;29578;51.946;5.874;2022-12-04T11:28:44;3.55;;;1.65;;
43919;SDS011;29578;51.946;5.874;2022-12-04T11:31:17;3.65;;;1.70;;
43919;SDS011;29578;51.946;5.874;2022-12-04T11:33:46;2.38;;;1.48;;
43919;SDS011;29578;51.946;5.874;2022-12-04T11:36:19;3.95;;;2.00;;
43919;SDS011;29578;51.946;5.874;2022-12-04T11:38:48;3.28;;;1.67;;
43919;SDS011;29578;51.946;5.874;2022-12-04T11:41:24;2.50;;;1.50;;
43919;SDS011;29578;51.946;5.874;2022-12-04T11:43:52;2.63;;;1.27;;
43919;SDS011;29578;51.946;5.874;2022-12-04T11:46:20;3.50;;;1.73;;
43919;SDS011;29578;51.946;5.874;2022-12-04T11:48:47;2.92;;;1.70;;
43919;SDS011;29578;51.946;5.874;2022-12-04T11:54:15;4.32;;;1.80;;
43919;SDS011;29578;51.946;5.874;2022-12-04T11:57:03;4.38;;;1.98;;
43919;SDS011;29578;51.946;5.874;2022-12-04T11:59:45;2.97;;;1.50;;
43919;SDS011;29578;51.946;5.874;2022-12-04T12:05:35;2.95;;;1.50;;
43919;SDS011;29578;51.946;5.874;2022-12-04T12:14:04;3.63;;;1.60;;
43919;SDS011;29578;51.946;5.874;2022-12-04T12:16:48;3.42;;;1.55;;
43919;SDS011;29578;51.946;5.874;2022-12-04T12:19:47;3.65;;;1.80;;
43919;SDS011;29578;51.946;5.874;2022-12-04T12:22:35;3.00;;;1.35;;
43919;SDS011;29578;51.946;5.874;2022-12-04T12:25:21;3.35;;;1.88;;
43919;SDS011;29578;51.946;5.874;2022-12-04T12:28:00;2.55;;;1.55;;
43919;SDS011;29578;51.946;5.874;2022-12-04T12:30:53;3.92;;;2.00;;
43919;SDS011;29578;51.946;5.874;2022-12-04T12:33:45;3.35;;;1.48;;
43919;SDS011;29578;51.946;5.874;2022-12-04T12:36:18;2.95;;;1.50;;
43919;SDS011;29578;51.946;5.874;2022-12-04T12:38:47;3.05;;;1.48;;
43919;SDS011;29578;51.946;5.874;2022-12-04T12:41:22;3.08;;;1.55;;
43919;SDS011;29578;51.946;5.874;2022-12-04T12:43:53;2.42;;;1.33;;
43919;SDS011;29578;51.946;5.874;2022-12-04T12:46:27;3.20;;;1.52;;
43919;SDS011;29578;51.946;5.874;2022-12-04T12:49:01;3.78;;;1.52;;
43919;SDS011;29578;51.946;5.874;2022-12-04T12:51:36;2.28;;;1.42;;
43919;SDS011;29578;51.946;5.874;2022-12-04T12:57:14;2.75;;;1.35;;
43919;SDS011;29578;51.946;5.874;2022-12-04T12:59:48;3.25;;;1.50;;
43919;SDS011;29578;51.946;5.874;2022-12-04T13:02:21;2.70;;;1.45;;
43919;SDS011;29578;51.946;5.874;2022-12-04T13:05:02;3.10;;;1.60;;
43919;SDS011;29578;51.946;5.874;2022-12-04T13:07:41;2.55;;;1.33;;
43919;SDS011;29578;51.946;5.874;2022-12-04T13:10:32;3.72;;;1.42;;
43919;SDS011;29578;51.946;5.874;2022-12-04T13:13:03;3.25;;;1.60;;
43919;SDS011;29578;51.946;5.874;2022-12-04T13:15:43;3.17;;;1.58;;
43919;SDS011;29578;51.946;5.874;2022-12-04T13:18:19;2.25;;;1.20;;
43919;SDS011;29578;51.946;5.874;2022-12-04T13:20:54;2.55;;;1.42;;
43919;SDS011;29578;51.946;5.874;2022-12-04T13:26:42;4.28;;;1.83;;
43919;SDS011;29578;51.946;5.874;2022-12-04T13:32:28;3.53;;;1.30;;
43919;SDS011;29578;51.946;5.874;2022-12-04T13:38:16;2.58;;;1.30;;
43919;SDS011;29578;51.946;5.874;2022-12-04T13:40:55;2.42;;;1.25;;
43919;SDS011;29578;51.946;5.874;2022-12-04T13:51:51;3.05;;;1.70;;
43919;SDS011;29578;51.946;5.874;2022-12-04T13:54:20;2.60;;;1.70;;
43919;SDS011;29578;51.946;5.874;2022-12-04T13:56:51;3.53;;;1.67;;
43919;SDS011;29578;51.946;5.874;2022-12-04T13:59:21;2.88;;;1.52;;
43919;SDS011;29578;51.946;5.874;2022-12-04T14:04:52;3.13;;;1.55;;
43919;SDS011;29578;51.946;5.874;2022-12-04T14:07:25;3.45;;;1.95;;
43919;SDS011;29578;51.946;5.874;2022-12-04T14:09:54;3.17;;;1.95;;
43919;SDS011;29578;51.946;5.874;2022-12-04T14:12:24;4.68;;;2.35;;
43919;SDS011;29578;51.946;5.874;2022-12-04T14:14:53;4.03;;;2.20;;
43919;SDS011;29578;51.946;5.874;2022-12-04T14:17:28;5.55;;;2.55;;
43919;SDS011;29578;51.946;5.874;2022-12-04T14:19:57;4.13;;;1.95;;
43919;SDS011;29578;51.946;5.874;2022-12-04T14:22:27;5.57;;;2.40;;
43919;SDS011;29578;51.946;5.874;2022-12-04T14:28:22;5.10;;;2.30;;
43919;SDS011;29578;51.946;5.874;2022-12-04T14:33:31;4.68;;;2.45;;
43919;SDS011;29578;51.946;5.874;2022-12-04T14:36:03;4.07;;;2.17;;
43919;SDS011;29578;51.946;5.874;2022-12-04T14:38:32;3.63;;;1.65;;
43919;SDS011;29578;51.946;5.874;2022-12-04T14:40:58;4.70;;;2.33;;
43919;SDS011;29578;51.946;5.874;2022-12-04T14:43:27;3.97;;;2.00;;
43919;SDS011;29578;51.946;5.874;2022-12-04T14:46:05;6.40;;;2.35;;
43919;SDS011;29578;51.946;5.874;2022-12-04T14:48:43;4.50;;;2.20;;
43919;SDS011;29578;51.946;5.874;2022-12-04T14:51:21;4.68;;;2.40;;
43919;SDS011;29578;51.946;5.874;2022-12-04T14:54:01;4.53;;;1.95;;
43919;SDS011;29578;51.946;5.874;2022-12-04T14:56:49;4.28;;;2.13;;
43919;SDS011;29578;51.946;5.874;2022-12-04T14:59:39;5.32;;;2.38;;
43919;SDS011;29578;51.946;5.874;2022-12-04T15:02:10;5.75;;;2.60;;
43919;SDS011;29578;51.946;5.874;2022-12-04T15:04:40;4.40;;;2.10;;
43919;SDS011;29578;51.946;5.874;2022-12-04T15:07:15;5.72;;;2.45;;
43919;SDS011;29578;51.946;5.874;2022-12-04T15:09:51;5.32;;;2.72;;
43919;SDS011;29578;51.946;5.874;2022-12-04T15:15:20;5.20;;;2.40;;
43919;SDS011;29578;51.946;5.874;2022-12-04T15:17:54;4.03;;;2.15;;
43919;SDS011;29578;51.946;5.874;2022-12-04T15:20:24;4.65;;;2.40;;
43919;SDS011;29578;51.946;5.874;2022-12-04T15:22:52;4.45;;;2.17;;
43919;SDS011;29578;51.946;5.874;2022-12-04T15:25:23;4.20;;;2.08;;
43919;SDS011;29578;51.946;5.874;2022-12-04T15:27:52;4.97;;;1.90;;
43919;SDS011;29578;51.946;5.874;2022-12-04T15:30:24;4.28;;;2.17;;
43919;SDS011;29578;51.946;5.874;2022-12-04T15:32:53;4.25;;;2.13;;
43919;SDS011;29578;51.946;5.874;2022-12-04T15:35:24;5.47;;;2.65;;
43919;SDS011;29578;51.946;5.874;2022-12-04T15:37:53;4.93;;;2.53;;
43919;SDS011;29578;51.946;5.874;2022-12-04T15:40:21;6.20;;;2.83;;
43919;SDS011;29578;51.946;5.874;2022-12-04T15:42:48;5.22;;;2.58;;
43919;SDS011;29578;51.946;5.874;2022-12-04T15:45:23;4.20;;;2.20;;
43919;SDS011;29578;51.946;5.874;2022-12-04T15:47:52;4.70;;;2.20;;
43919;SDS011;29578;51.946;5.874;2022-12-04T15:50:21;6.80;;;2.65;;
43919;SDS011;29578;51.946;5.874;2022-12-04T15:55:39;5.03;;;2.55;;
43919;SDS011;29578;51.946;5.874;2022-12-04T15:58:21;6.20;;;2.80;;
43919;SDS011;29578;51.946;5.874;2022-12-04T16:01:00;4.63;;;2.17;;
43919;SDS011;29578;51.946;5.874;2022-12-04T16:03:32;5.45;;;2.40;;
43919;SDS011;29578;51.946;5.874;2022-12-04T16:06:06;4.50;;;2.30;;
43919;SDS011;29578;51.946;5.874;2022-12-04T16:08:40;6.05;;;2.45;;
43919;SDS011;29578;51.946;5.874;2022-12-04T16:11:27;3.03;;;1.80;;
43919;SDS011;29578;51.946;5.874;2022-12-04T16:14:13;4.80;;;2.45;;
43919;SDS011;29578;51.946;5.874;2022-12-04T16:16:43;5.85;;;2.17;;
43919;SDS011;29578;51.946;5.874;2022-12-04T16:19:13;4.65;;;1.88;;
43919;SDS011;29578;51.946;5.874;2022-12-04T16:21:51;4.47;;;2.05;;
43919;SDS011;29578;51.946;5.874;2022-12-04T16:24:17;3.75;;;1.85;;
43919;SDS011;29578;51.946;5.874;2022-12-04T16:26:43;4.75;;;2.03;;
43919;SDS011;29578;51.946;5.874;2022-12-04T16:29:08;4.88;;;2.15;;